ADDS METAR Data INFO
IDs: Format: Raw Decoded Include TAF

Data at: 1411 UTC 12 Dec 2017

KRST 121354Z 30007KT 10SM CLR M16/M17 A3017 RMK AO2 SLP243 I1000 T11561167
KRST 121254Z 31007KT 10SM CLR M15/M16 A3018 RMK AO2 SLP245 T11501161
KRST 121154Z 31008KT 10SM CLR M14/M16 A3017 RMK AO2 SLP242 70017 T11441156 11089 21144 58001
KRST 121054Z 30008KT 10SM FEW012 M14/M15 A3018 RMK AO2 SLP243 T11391150
KRST 120954Z 31011KT 10SM CLR M12/M14 A3018 RMK AO2 SLP241 T11221139
KRST 120854Z AUTO 32015KT 10SM FEW013 M11/M13 A3018 RMK AO2 SLP240 T11111128 53010
KRST 120829Z AUTO 32013KT 10SM SCT013 M11/M12 A3017 RMK AO2 T11111122
KRST 120754Z AUTO 32012KT 10SM BKN014 M10/M12 A3016 RMK AO2 SLP235 T11001117
KRST 120654Z AUTO 33013KT 10SM CLR M09/M13 A3015 RMK AO2 SLP231 T10941128
KRST 120554Z AUTO 33014KT 10SM CLR M09/M12 A3014 RMK AO2 PK WND 34026/0523 SLP229 T10891117 11017 21089 400111089 51018 $
KRST 120454Z AUTO 33015KT 10SM CLR M08/M12 A3014 RMK AO2 PK WND 34027/0356 SLP226 T10831122 $
KRST 120354Z 34019G27KT 10SM CLR M07/M11 A3012 RMK AO2 PK WND 33027/0300 SLP218 T10721111
KRST 120254Z 34019G28KT 10SM FEW027 M06/M11 A3009 RMK AO2 PK WND 32034/0211 SLP209 T10611106 51038
KRST 120222Z 34023G31KT 10SM SCT028 M06/M10 A3007 RMK AO2 PK WND 32034/0211 T10561100
KRST 120154Z 35025G30KT 10SM OVC029 M05/M09 A3006 RMK AO2 PK WND 35031/0131 SLP199 T10501089
KRST 120054Z 35020G29KT 10SM OVC029 M03/M08 A3002 RMK AO2 PK WND 33034/2358 PRESRR SLP185 T10331078
KRST 112354Z 34022G29KT 10SM BKN024 OVC030 M01/M05 A2997 RMK AO2 PK WND 34030/2333 SLP167 60000 T10111050 10011 21011 51044
KRST 112254Z 34016KT 10SM BKN018 OVC033 M01/M03 A2994 RMK AO2 PK WND 35027/2213 SLP154 T10061028
KRST 112223Z 35020G26KT 10SM SCT011 OVC017 M01/M02 A2992 RMK AO2 PK WND 35027/2213 T10061022
KRST 112154Z 34016KT 9SM OVC011 00/M02 A2989 RMK AO2 PK WND 35027/2055 SLP139 T00001017
KRST 112054Z 35026G34KT 10SM OVC011 00/M02 A2984 RMK AO2 PK WND 35034/2054 UPB13E38 SLP121 P0000 60000 T00001017 53034
KRST 112047Z 35017G30KT 10SM OVC011 00/M02 A2984 RMK AO2 PK WND 33030/2038 UPB13E38 P0000 T00001017
KRST 111954Z 34015KT 6SM BR OVC007 01/M01 A2980 RMK AO2 RAE00B24E50SNB00E24B34E46 CIG 006V011 SLP106 P0000 T00061006
KRST 111927Z 34019G25KT 6SM -RA BR OVC007 01/M01 A2978 RMK AO2 RAE00B24SNB00E24 P0000 T00061006
KRST 111916Z 33014KT 1 1/2SM -SN BR OVC009 01/00 A2977 RMK AO2 SFC VIS 2 RAE00SNB00 CIG 006V011 P0000 T00060000
KRST 111907Z 32014KT 1 3/4SM R31/6000VP6000FT -SN BR OVC010 01/00 A2977 RMK AO2 RAE00SNB00 CIG 007V013 P0000 T00060000
KRST 111854Z 33013KT 6SM -RA BR BKN010 OVC018 01/00 A2975 RMK AO2 RAB50SNE02 SLP092 P0000 T00060000
KRST 111834Z 33014KT 10SM BKN012 OVC019 01/M01 A2975 RMK AO2 SNE02 P0000 T00061006
KRST 111754Z 31011KT 3SM -SN BR OVC020 01/00 A2973 RMK AO2 RAB39E40UPB40E43SNB43 SLP086 P0000 60017 I6002 T00060000 10006 21022 53008
KRST 111654Z 30007KT 5SM BR OVC021 00/00 A2972 RMK AO2 UPB21E36SNE21 SLP082 P0002 T00000000
KRST 111628Z 29006KT 4SM UP BR FEW004 OVC022 00/00 A2971 RMK AO2 UPB21SNE21 P0002 T00000000
KRST 111625Z 28006KT 3/4SM R31/P6000FT UP BR FEW004 OVC022 00/00 A2971 RMK AO2 SFC VIS 4 UPB21SNE21 P0002 T00000000
KRST 111622Z 29007KT 3/4SM R31/P6000FT UP BR SCT004 OVC022 00/00 A2971 RMK AO2 SFC VIS 4 UPB21SNE21 P0002 T00000000
KRST 111610Z 28007KT 3/4SM R31/P6000FT -SN BR BKN004 BKN022 OVC027 00/00 A2971 RMK AO2 SFC VIS 1 1/2 P0001 T00000000
KRST 111601Z 27009KT 3/4SM R31/4000VP6000FT -SN BR BKN005 OVC018 00/00 A2971 RMK AO2 P0000 T00000000
KRST 111554Z 27009KT 1SM R31/4000V6000FT -SN BR BKN005 BKN016 OVC027 00/00 A2971 RMK AO2 UPB07E16FZRAB16E39SNE07B39 SLP078 P0008 I1002 T00000000
KRST 111545Z 26007KT 1 3/4SM R31/3500VP6000FT -SN BR FEW007 BKN016 OVC029 00/M01 A2971 RMK AO2 UPB07E16FZRAB16E39SNE07B39 P0007 I1002 T00001006
KRST 111541Z 26008KT 2 1/2SM R31/6000VP6000FT -SN BR BKN018 OVC029 M01/M01 A2971 RMK AO2 UPB07E16FZRAB16E39SNE07B39 P0006 I1002 T10061006
KRST 111533Z 24007KT 4SM -FZRA BR FEW020 OVC029 M01/M01 A2971 RMK AO2 UPB07E16FZRAB16SNE07 P0005 I1002 T10061011
KRST 111522Z 21005KT 2 1/2SM -FZRA BR FEW026 OVC031 M01/M01 A2970 RMK AO2 SFC VIS 3 UPB07E16FZRAB16SNE07 P0005 I1001 T10061011
KRST 111508Z 19006KT 2 1/2SM UP BR FEW009 OVC026 M01/M01 A2970 RMK AO2 UPB07SNE07 P0003 T10111011
KRST 111501Z 19006KT 1 3/4SM R31/5000VP6000FT -SN BR FEW009 BKN024 OVC034 M01/M01 A2970 RMK AO2 TWR VIS 2 P0002 T10111011
KRST 111454Z 20005KT 3/4SM R31/3500VP6000FT -SN BR FEW009 OVC017 M02/M02 A2971 RMK AO2 TWR VIS 1 UPB01E04SNB04 SLP079 P0007 60007 T10171017 56013
KRST 111431Z 21007KT 3/4SM R31/3000VP6000FT -SN BR VV020 M02/M03 A2972 RMK AO2 TWR VIS 1 UPB01E04SNB04 P0002 T10171028
KRST 111424Z 22007KT 1 3/4SM R31/5000VP6000FT -SN BR OVC026 M02/M03 A2972 RMK AO2 UPB01E04SNB04 P0001 T10171028
KRST 111414Z 24008KT 2 1/2SM -SN BR BKN028 OVC045 M02/M04 A2973 RMK AO2 UPB01E04SNB04 P0000 T10171039
KRST 111354Z 21008KT 10SM BKN045 OVC055 M02/M04 A2972 RMK AO2 PRESRR SLP083 T10171039
KRST 111254Z 18009KT 10SM OVC046 M02/M04 A2972 RMK AO2 SLP080 T10221044
KRST 111154Z 17008KT 10SM FEW035 BKN045 M03/M04 A2975 RMK AO2 SLP091 60000 T10281044 11022 21050 56038
KRST 111054Z 17009KT 10SM OVC040 M03/M04 A2978 RMK AO2 SLP102 T10281044
KRST 110954Z AUTO 18011KT 10SM BKN048 BKN120 M03/M05 A2983 RMK AO2 SLP119 T10331050
KRST 110854Z AUTO 17010KT 10SM OVC055 M03/M05 A2986 RMK AO2 SLP131 60000 T10331050 56029
KRST 110754Z AUTO 17008KT 10SM OVC060 M03/M05 A2989 RMK AO2 SNE32 SLP140 P0000 T10331050 $
KRST 110654Z AUTO 18007KT 7SM -SN BKN033 OVC075 M04/M06 A2992 RMK AO2 SNB54 SLP150 P0000 T10391056
KRST 110554Z AUTO 17007KT 9SM OVC070 M05/M06 A2995 RMK AO2 SLP163 T10501061 11028 21067 410221067 58022
KRST 110454Z AUTO 16004KT 9SM OVC080 M05/M06 A2998 RMK AO2 SLP173 T10501061
KRST 110354Z 19005KT 10SM CLR M07/M07 A3000 RMK AO2 SLP180 T10671072
KRST 110254Z 19004KT 10SM FEW013 M07/M07 A3002 RMK AO2 SLP187 T10671072 56007